Weather observations for the past three days for
Delaware Airpark
Metric (Imperial)
Date Time (edt) Wind (kph) Vis. (km) Weather Sky Cond. Temperature (ºC) Relative Humidity Wind Chill (°C) Heat Index (°C) Pressure Precipitation (cm)
Air Dwpt 6 hour altimeter (cm) sea level (mb) 1 hr 3 hr 6 hr
Max. Min.
02 15:15 N 20 16.09 Partly Cloudy SCT060 16 2 39% 75.84 0.0
02 14:55 N 15 G 26 16.09 Partly Cloudy SCT060 16 1 36% 75.87 0.0
02 14:35 N 22 16.09 A Few Clouds FEW055 FEW065 15 1 39% 75.9 0.0
02 14:15 N 20 16.09 Fair CLR 16 1 36% 75.92 0.0
02 13:55 NW 15 16.09 Fair CLR 15 1 39% 75.95 0.0
02 13:35 NW 19 16.09 Fair CLR 15 2 42% 75.95 0.0
02 13:15 N 19 16.09 A Few Clouds FEW038 14 3 48% 75.97 0.0
02 12:55 N 13 G 22 16.09 A Few Clouds FEW038 13 5 59% 75.97 0.0
02 12:35 Vrbl 9 G 20 16.09 Partly Cloudy SCT034 13 5 59% 76 0.0
02 12:15 NW 15 16.09 Partly Cloudy SCT033 13 5 59% 76 0.0
02 11:55 NW 7 G 22 16.09 Fair CLR 12 5 63% 76.02 0.0
02 11:35 NW 13 16.09 Fair CLR 12 5 63% 76.02 0.0
02 11:15 NW 9 G 26 16.09 Fair CLR 12 5 63% 76 0.0
02 10:55 NW 13 G 26 16.09 Fair CLR 12 5 63% 76 0.0
02 10:35 NW 9 G 22 16.09 Fair CLR 12 5 63% 76 0.0
02 10:15 NW 15 16.09 Fair CLR 12 5 63% 76 0.0
02 09:55 Vrbl 7 G 20 16.09 Fair CLR 12 5 63% 76 0.0
02 09:35 N 13 16.09 Fair CLR 11 5 67% 76 0.0
02 09:15 Vrbl 11 G 20 16.09 Fair CLR 11 6 72% 76 0.0
02 08:55 NW 13 G 22 16.09 Fair CLR 11 5 67% 76.02 0.0
02 08:35 N 15 16.09 Fair CLR 11 6 72% 76.02 0.0
02 08:15 NW 13 G 22 16.09 Fair CLR 11 5 67% 76.02 0.0
02 07:55 NW 15 16.09 Fair CLR 11 6 72% 76.02 0.0
02 07:35 NW 9 16.09 Fair CLR 10 8 88% 9 76 0.0
02 07:15 Calm 16.09 Fair CLR 9 8 94% 76 0.0
02 06:55 NW 7 16.09 Fair CLR 8 8 100% 7 75.97 0.0
02 06:35 W 6 16.09 Fair CLR 7 7 100% 75.97 0.0
02 06:15 Calm 16.09 NULL NULL 7 7 100% 75.95 0.0
02 05:55 Calm 16.09 NULL NULL 7 7 100% 75.92 0.0
02 05:35 Calm 16.09 NULL NULL 8 7 93% 75.92 0.0
02 05:15 Calm 16.09 NULL NULL 8 7 93% 75.92 0.0
02 04:55 Calm 16.09 NULL NULL 8 7 93% 75.92 0.0
02 04:35 Calm 16.09 NULL NULL 9 7 87% 75.9 0.0
02 04:15 Calm 16.09 NULL NULL 9 7 87% 75.9 0.0
02 03:55 Calm 16.09 NULL NULL 9 7 87% 75.92 0.0
02 03:35 Calm 16.09 NULL NULL 10 7 82% 75.9 0.0
02 03:15 Calm 16.09 NULL NULL 10 7 82% 75.92 0.0
02 02:55 Calm 16.09 NULL NULL 10 6 76% 75.9 0.0
02 02:35 Calm 16.09 NULL NULL 10 6 76% 75.95 0.0
02 02:15 SW 7 16.09 NULL NULL 10 6 76% 9 75.95 0.0
02 01:55 Vrbl 7 G 20 16.09 NULL NULL 11 5 67% 75.95 0.0
02 01:35 S 13 16.09 NULL NULL 11 5 67% 75.92 0.0
02 01:15 S 13 16.09 NULL NULL 11 5 67% 75.92 0.0
02 00:55 S 15 16.09 NULL NULL 11 5 67% 75.92 0.0
02 00:35 S 11 16.09 NULL NULL 11 5 67% 75.92 0.0
02 00:15 S 13 16.09 NULL NULL 11 5 67% 75.92 0.0
01 23:55 Vrbl 9 16.09 NULL NULL 11 5 67% 75.95 0.0
01 23:35 Vrbl 9 16.09 NULL NULL 11 4 62% 75.92 0.0
01 23:15 S 11 16.09 NULL NULL 12 3 54% 75.9 0.0
01 22:55 S 7 16.09 NULL NULL 12 3 54% 75.9 0.0
01 22:35 S 7 16.09 NULL NULL 11 3 58% 75.92 0.0
01 22:15 S 6 16.09 NULL NULL 12 3 54% 75.95 0.0
01 21:55 S 7 16.09 NULL NULL 12 3 54% 75.95 0.0
01 21:35 SE 7 16.09 NULL NULL 12 5 63% 75.92 0.0
01 21:15 S 7 16.09 NULL NULL 11 6 72% 75.92 0.0
01 20:55 Calm 16.09 NULL NULL 11 9 88% 75.9 0.0
01 20:35 Calm 16.09 NULL NULL 11 9 88% 75.9 0.0
01 20:15 Calm 16.09 NULL NULL 12 9 82% 75.87 0.0
01 19:55 Calm 16.09 Fair CLR 13 9 77% 75.87 0.0
01 19:35 Calm 16.09 Fair CLR 15 8 63% 75.87 0.0
01 19:15 SE 7 16.09 Fair CLR 16 7 55% 75.87 0.0
01 18:55 E 7 16.09 Fair CLR 16 7 55% 75.84 0.0
01 18:35 Vrbl 6 16.09 Fair CLR 16 6 52% 75.84 0.0
01 18:15 SE 7 G 19 16.09 Fair CLR 16 6 52% 75.84 0.0
01 17:55 SE 11 16.09 Fair CLR 17 5 45% 75.84 0.0
01 17:35 SW 9 G 19 16.09 Fair CLR 19 3 35% 75.84 0.0
01 17:15 W 13 16.09 Fair CLR 19 2 32% 75.87 0.0
01 16:55 SW 13 G 24 16.09 Fair CLR 18 2 34% 75.87 0.0
01 16:35 W 9 G 20 16.09 Fair CLR 18 2 34% 75.87 0.0
01 16:15 Vrbl 9 G 24 16.09 Fair CLR 19 1 30% 75.87 0.0
01 15:55 S 11 16.09 Fair CLR 19 0 28% 75.9 0.0
01 15:35 Vrbl 11 G 24 16.09 Fair CLR 18 0 30% 75.92 0.0
01 15:15 W 7 G 22 16.09 Fair CLR 18 -1 28% 75.92 0.0
01 14:55 Calm 16.09 Fair CLR 18 0 30% 75.95 0.0
01 14:35 Vrbl 11 G 20 16.09 Fair CLR 18 0 30% 75.97 0.0
01 14:15 SW 17 G 28 16.09 Fair CLR 18 0 30% 75.97 0.0
01 13:55 SW 15 16.09 Fair CLR 17 0 32% 75.97 0.0
01 13:35 Vrbl 7 16.09 Fair CLR 17 0 32% 75.97 0.0
01 13:15 Calm 16.09 Fair CLR 16 -1 31% 76 0.0
01 12:55 SW 11 16.09 Fair CLR 17 -1 30% 76 0.0
01 12:35 W 11 16.09 Fair CLR 16 0 34% 76.02 0.0
01 12:15 Vrbl 7 16.09 Fair CLR 16 -1 31% 76.05 0.0
01 11:55 NE 7 16.09 Fair CLR 15 -1 34% 76.07 0.0
01 11:35 Vrbl 7 G 26 16.09 Fair CLR 15 0 36% 76.1 0.0
01 11:15 Vrbl 9 G 22 16.09 Fair CLR 15 0 36% 76.1 0.0
01 10:55 NW 13 G 35 16.09 Fair CLR 14 0 39% 76.12 0.0
01 10:35 N 15 G 28 16.09 Fair CLR 14 1 41% 76.12 0.0
01 10:15 N 11 G 22 16.09 Fair CLR 14 2 44% 76.12 0.0
01 09:55 Calm 16.09 Fair CLR 13 3 51% 76.12 0.0
01 09:35 NW 13 16.09 Fair CLR 13 3 51% 76.12 0.0
01 09:15 Vrbl 7 16.09 Fair CLR 12 4 58% 76.15 0.0
01 08:55 Vrbl 7 16.09 Fair CLR 12 5 63% 76.15 0.0
01 08:35 Vrbl 7 16.09 Fair CLR 11 6 72% 76.15 0.0
01 08:15 Vrbl 9 16.09 Fair CLR 10 6 76% 9 76.15 0.0
01 07:55 Vrbl 6 16.09 Fair CLR 10 7 82% 76.12 0.0
01 07:35 Vrbl 6 16.09 Fair CLR 8 7 93% 76.12 0.0
01 07:15 Calm 16.09 Fair CLR 6 6 100% 76.1 0.0
01 06:55 Calm 16.09 Fair CLR 5 5 100% 76.12 0.0
01 06:35 Calm 16.09 Fair CLR 4 4 100% 76.1 0.0
01 06:15 Calm 16.09 NULL NULL 4 4 100% 76.1 0.0
01 05:55 Calm 16.09 NULL NULL 5 5 100% 76.07 0.0
01 05:35 W 6 16.09 NULL NULL 5 5 100% 76.07 0.0
01 05:15 Calm 16.09 NULL NULL 5 5 100% 76.07 0.0
01 04:55 Calm 16.09 NULL NULL 6 5 93% 76.07 0.0
01 04:35 W 7 16.09 NULL NULL 6 5 93% 5 76.05 0.0
01 04:15 Calm 16.09 NULL NULL 5 4 93% 76.05 0.0
01 03:55 Calm 16.09 NULL NULL 7 5 87% 76.02 0.0
01 03:35 W 9 16.09 NULL NULL 6 5 93% 4 76.02 0.0
01 03:15 W 7 16.09 NULL NULL 7 4 81% 6 76 0.0
01 02:55 Calm 16.09 NULL NULL 8 4 76% 76 0.0
01 02:35 Vrbl 9 16.09 NULL NULL 9 4 71% 8 75.97 0.0
01 02:15 W 9 16.09 NULL NULL 8 4 76% 7 75.97 0.0
01 01:35 W 7 G 19 16.09 NULL NULL 9 4 71% 8 75.97 0.0
01 01:15 NW 9 16.09 NULL NULL 9 4 71% 8 75.97 0.0
01 00:55 NW 6 16.09 NULL NULL 9 4 71% 75.97 0.0
01 00:35 W 9 16.09 NULL NULL 9 4 71% 8 75.97 0.0
01 00:15 W 7 16.09 NULL NULL 10 4 67% 9 75.95 0.0
30 23:55 Vrbl 6 16.09 NULL NULL 10 4 67% 75.95 0.0
30 23:35 Vrbl 9 16.09 NULL NULL 11 4 62% 75.95 0.0
30 23:15 W 6 16.09 NULL NULL 11 4 62% 75.95 0.0
30 22:55 NW 9 G 26 16.09 NULL NULL 12 4 58% 75.95 0.0
30 22:35 Vrbl 7 G 20 16.09 NULL NULL 12 5 63% 75.95 0.0
30 22:15 NW 15 G 28 16.09 NULL NULL 12 5 63% 75.92 0.0
30 21:55 NW 15 16.09 NULL NULL 13 6 63% 75.9 0.0
30 21:35 NW 11 16.09 NULL NULL 13 6 63% 75.87 0.0
30 21:15 NW 9 G 22 16.09 NULL NULL 14 6 59% 75.84 0.0
30 20:55 NW 9 G 20 16.09 NULL NULL 14 6 59% 75.82 0.0
30 20:35 NW 17 G 33 16.09 NULL NULL 15 6 55% 75.79 0.0
30 20:15 NW 19 G 33 16.09 NULL NULL 15 7 59% 75.74 0.0
30 19:55 NW 22 G 39 16.09 Mostly Cloudy FEW070 BKN100 16 7 55% 75.69 0.0
30 19:35 NW 20 G 35 16.09 Mostly Cloudy BKN070 BKN080 BKN100 17 5 45% 75.67 0.0
30 19:15 NW 9 16.09 Mostly Cloudy BKN070 BKN080 BKN090 18 5 43% 75.62 0.0
30 18:55 NW 7 16.09 Mostly Cloudy BKN070 BKN090 18 5 43% 75.62 0.0
30 18:35 Vrbl 11 16.09 Partly Cloudy FEW070 SCT090 19 4 37% 75.59 0.0
30 18:15 W 13 G 24 16.09 Partly Cloudy FEW070 SCT085 20 5 38% 75.59 0.0
30 17:55 Vrbl 7 16.09 Mostly Cloudy SCT065 BKN090 19 6 43% 75.59 0.0
30 17:35 NW 9 16.09 Mostly Cloudy SCT065 SCT070 BKN085 18 6 46% 75.59 0.0
30 17:15 Vrbl 6 G 24 16.09 A Few Clouds FEW060 FEW075 FEW085 19 6 43% 75.57 0.0
30 16:55 W 13 16.09 Partly Cloudy FEW060 SCT080 19 6 43% 75.57 0.0
30 16:35 Vrbl 9 G 20 16.09 Mostly Cloudy BKN060 BKN075 19 6 43% 75.54 0.0
30 16:15 W 24 16.09 A Few Clouds FEW060 20 5 38% 75.51 0.0
30 15:55 NW 17 G 31 16.09 A Few Clouds FEW060 FEW075 20 7 43% 75.51 0.0
30 15:35 Vrbl 9 G 20 16.09 A Few Clouds FEW055 FEW075 20 8 46% 75.51 0.0
30 15:15 W 13 G 24 16.09 Partly Cloudy FEW049 SCT070 20 7 43% 75.51 0.0
30 14:55 W 15 G 28 16.09 Partly Cloudy SCT049 SCT065 SCT075 19 8 49% 75.51 0.0
30 14:35 N 15 G 26 16.09 Partly Cloudy SCT048 SCT060 19 8 49% 75.51 0.0
30 14:15 NW 15 G 24 16.09 A Few Clouds FEW047 FEW055 FEW065 19 8 49% 75.54 0.0
30 13:55 NW 17 16.09 Partly Cloudy SCT047 SCT055 SCT060 18 8 52% 75.57 0.0
30 13:35 NW 20 16.09 Partly Cloudy SCT046 SCT060 19 8 49% 75.57 0.0
30 13:15 Vrbl 11 G 26 16.09 Partly Cloudy FEW036 SCT046 18 9 56% 75.59 0.0
30 12:55 NW 19 16.09 Partly Cloudy SCT037 SCT044 17 9 60% 75.59 0.0
30 12:35 NW 15 16.09 Mostly Cloudy FEW033 BKN041 17 9 60% 75.59 0.0
30 12:10 NW 19 G 30 16.09 Mostly Cloudy SCT030 BKN037 BKN042 17 11 68% 75.62 0.0
30 11:55 N 17 16.09 Mostly Cloudy BKN030 BKN038 16 11 72% 75.59 0.0
30 11:35 N 15 G 24 16.09 Mostly Cloudy FEW023 BKN031 BKN039 16 11 72% 75.62 0.0
30 11:15 N 19 16.09 Mostly Cloudy BKN022 BKN031 BKN040 16 12 77% 75.64 0.0
30 10:55 N 20 16.09 Mostly Cloudy BKN021 BKN029 BKN035 16 12 77% 75.64 0.0
30 10:35 Calm 16.09 Overcast BKN018 OVC022 15 12 82% 75.67 0.0
30 10:15 NW 13 16.09 Mostly Cloudy BKN016 BKN025 15 12 82% 75.64 0.0
30 09:55 NW 13 16.09 Mostly Cloudy SCT015 BKN022 14 13 94% 75.64 0.0
30 09:35 NW 11 16.09 Overcast BKN015 OVC021 14 13 94% 75.62 0.0
30 09:15 N 15 16.09 Overcast OVC015 14 13 94% 75.59 0.0
30 08:55 Vrbl 7 16.09 Overcast OVC012 13 13 100% 75.59 0.0
30 08:35 NW 11 16.09 Partly Cloudy SCT012 13 13 100% 75.59 0.0
30 08:15 NW 7 16.09 Fair CLR 12 12 100% 75.59 0.0
30 07:55 NW 9 16.09 Fair CLR 12 12 100% 75.59 0.0
30 07:35 W 7 12.87 A Few Clouds FEW004 12 12 100% 75.59 0.0
30 07:15 Calm 9.66 Fog/Mist FEW004 SCT014 11 11 100% 75.59 0.0
30 06:55 Calm 11.27 Partly Cloudy SCT014 11 11 100% 75.59 0.0
30 06:35 Calm 11.27 Mostly Cloudy BKN014 11 10 94% 75.57 0.0
30 06:15 Calm 11.27 NULL NULL 10 10 100% 75.54 0.0
30 05:55 W 7 14.48 NULL NULL 11 10 94% 75.57 0.0
30 05:35 W 6 11.27 NULL NULL 10 10 100% 75.54 0.0
30 05:15 Calm 12.87 NULL NULL 10 10 100% 75.54 0.0
30 04:55 Calm 8.05 Fog/Mist NULL 10 10 100% 75.54 0.0
30 04:35 Calm 14.48 NULL NULL 10 10 100% 75.51 0.0
30 04:15 Calm 16.09 NULL NULL 10 10 100% 75.51 0.0
30 03:55 Calm 16.09 NULL NULL 11 11 100% 75.51 0.0
30 03:35 Calm 16.09 NULL NULL 11 11 100% 75.51 0.0
30 03:15 E 7 16.09 NULL NULL 11 11 100% 75.49 0.0
30 02:55 E 6 16.09 NULL NULL 11 11 100% 75.51 0.0
30 02:35 E 7 16.09 NULL NULL 11 11 100% 75.54 0.0
30 02:15 Calm 16.09 NULL NULL 11 11 100% 75.57 0.0
30 01:55 Calm 16.09 NULL NULL 11 11 100% 75.59 0.0
30 01:35 NE 7 9.66 Fog/Mist NULL 11 11 100% 75.57 0.0
30 01:15 Calm 14.48 NULL NULL 11 11 100% 75.62 0.0
30 00:55 Calm 14.48 NULL NULL 11 11 100% 75.59 0.0
30 00:35 Vrbl 6 12.87 NULL NULL 11 11 100% 75.59 0.0
30 00:15 E 9 16.09 NULL NULL 11 11 100% 75.59 0.0
29 23:55 E 9 6.44 Fog/Mist NULL 11 10 94% 75.62 0.0
29 23:35 E 7 16.09 NULL NULL 11 10 94% 75.62 0.0
29 23:15 Vrbl 6 16.09 NULL NULL 11 10 94% 75.64 0.0
29 22:55 Calm 16.09 NULL NULL 11 10 94% 75.64 0.0
29 22:35 Vrbl 9 G 22 12.87 NULL NULL 11 9 88% 75.64 0.0
29 22:15 SE 7 16.09 NULL NULL 11 9 88% 75.67 0.0
29 21:55 E 7 14.48 NULL NULL 11 9 88% 75.67 0.0
29 21:35 Calm 16.09 NULL NULL 11 9 88% 75.67 0.0
29 21:15 E 7 16.09 NULL NULL 11 9 88% 75.69 0.0
29 20:55 E 9 16.09 NULL NULL 11 9 88% 75.69 0.0
29 20:35 E 9 9.66 Fog/Mist NULL 11 9 88% 75.69 0.0
29 20:15 E 9 16.09 NULL NULL 12 9 82% 75.69 0.0
29 19:55 E 7 16.09 Mostly Cloudy BKN036 BKN044 BKN090 12 9 82% 75.72 0.0
29 19:35 Vrbl 7 14.48 Mostly Cloudy BKN032 BKN046 12 8 77% 75.67 0.0
29 19:15 Vrbl 11 16.09 Overcast BKN032 BKN055 OVC075 13 7 67% 75.72 0.0
29 18:55 SE 15 16.09 Mostly Cloudy FEW033 SCT050 BKN060 13 7 67% 75.69 0.0
29 18:35 SE 15 16.09 Mostly Cloudy BKN049 BKN055 13 8 72% 75.69 0.0
29 18:15 E 11 G 26 14.48 Partly Cloudy FEW039 SCT048 SCT060 13 8 72% 75.72 0.0
29 17:55 SE 17 16.09 Mostly Cloudy BKN060 BKN080 14 8 67% 75.72 0.0
29 17:35 SE 13 G 22 16.09 Overcast OVC065 14 8 67% 75.74 0.0
29 17:15 E 13 16.09 Mostly Cloudy BKN065 14 8 67% 75.74 0.0
29 16:55 SE 15 16.09 Overcast OVC065 15 8 63% 75.74 0.0
29 16:35 SE 13 G 26 16.09 Partly Cloudy SCT065 15 8 63% 75.77 0.0
29 16:15 SE 15 16.09 Fair CLR 15 8 63% 75.77 0.0
29 15:55 SE 15 G 24 16.09 Fair CLR 15 8 63% 75.79 0.0
29 15:35 Vrbl 11 16.09 Fair CLR 15 8 63% 75.84 0.0
Date Time (edt) Wind (kph) Vis. (km) Weather Sky Cond. Air Dwpt Max. Min. Relative Humidity Wind Chill (°C) Heat Index (°C) altimeter (cm) sea level (mb) 1 hr 3 hr 6 hr
6 hour
Temperature (ºC) Pressure Precipitation (cm)